Terminal Aerodrome Forecast
Issued by NWS

Home | Current Version | Previous Version | Text Only | Print | Product List | Glossary On
Versions: 1 2 3 4 5 6 7 8 9 10 11 12 13 14 15 16 17 18 19 20 21 22 23 24 25 26
000
FTUS44 KFWD 071130
TAFAFW
TAF
KAFW 071130Z 0712/0812 18015KT P6SM VCSH BKN020
      TEMPO 0712/0716 P6SM NSW SCT020 BKN080
     FM071600 18017KT P6SM SCT025 BKN250
     FM072100 19016KT P6SM VCTS SCT040CB BKN250
     FM080200 18014KT P6SM -SHRA BKN050
     FM080800 18014KT P6SM VCTS BKN020CB=

USA.gov is the U.S. government's official web portal to all federal, state and local government web resources and services.